Terminal Aerodrome Forecast
Issued by NWS Topeka, KS

Home | Current Version | Previous Version | Graphics & Text | Print | Product List | Glossary On
Versions: 1 2 3 4 5 6 7 8 9 10 11 12 13 14 15 16 17
277
FTUS43 KTOP 081734
TAFTOP
TAF
KTOP 081734Z 0818/0918 32024G35KT P6SM BKN040
     FM090000 32016G24KT P6SM SCT040=

USA.gov is the U.S. government's official web portal to all federal, state and local government web resources and services.